createdAt,value
2018-07-19T00:02:17.803Z,18.71
2018-07-19T00:04:47.334Z,18.71
2018-07-19T00:07:17.731Z,18.78
2018-07-19T00:09:46.391Z,18.82
2018-07-19T00:12:15.089Z,18.91
2018-07-19T00:14:46.482Z,18.92
2018-07-19T00:17:15.060Z,18.97
2018-07-19T00:19:45.305Z,19.01
2018-07-19T00:22:13.880Z,19.06
2018-07-19T00:24:42.454Z,19.14
2018-07-19T00:27:12.016Z,19.15
2018-07-19T00:29:40.610Z,19.18
2018-07-19T00:32:09.924Z,19.30
2018-07-19T00:34:38.561Z,19.19
2018-07-19T00:37:07.259Z,19.24
2018-07-19T00:39:36.790Z,19.09
2018-07-19T00:42:05.341Z,19.01
2018-07-19T00:44:34.257Z,18.66
2018-07-19T00:47:03.175Z,18.36
2018-07-19T00:49:33.296Z,18.14
2018-07-19T00:52:02.042Z,18.14
2018-07-19T00:54:30.606Z,18.23
2018-07-19T00:56:59.175Z,18.22
2018-07-19T00:59:27.741Z,18.26
2018-07-19T01:01:56.518Z,18.20
2018-07-19T01:04:25.098Z,18.21
2018-07-19T01:06:53.722Z,18.25
2018-07-19T01:09:23.170Z,18.21
2018-07-19T01:11:51.706Z,18.18
2018-07-19T01:14:21.191Z,18.24
2018-07-19T01:16:50.026Z,18.35
2018-07-19T01:19:18.602Z,18.43
2018-07-19T01:21:47.155Z,18.50
2018-07-19T01:24:16.577Z,18.54
2018-07-19T01:26:45.614Z,18.31
2018-07-19T01:29:14.294Z,18.02
2018-07-19T01:31:42.809Z,17.87
2018-07-19T01:34:11.404Z,17.81
2018-07-19T01:36:39.967Z,17.85
2018-07-19T01:39:10.146Z,17.81
2018-07-19T01:41:49.826Z,17.88
2018-07-19T01:44:18.615Z,17.94
2018-07-19T01:46:47.570Z,18.02
2018-07-19T01:49:16.116Z,18.06
2018-07-19T01:51:44.702Z,18.20
2018-07-19T01:54:13.271Z,18.22
2018-07-19T01:56:41.979Z,18.26
2018-07-19T01:59:10.513Z,18.11
2018-07-19T02:01:39.029Z,17.96
2018-07-19T02:04:08.082Z,17.72
2018-07-19T02:06:36.780Z,17.65
2018-07-19T02:09:06.966Z,17.46
2018-07-19T02:11:35.534Z,17.41
2018-07-19T02:14:04.070Z,17.44
2018-07-19T02:16:32.887Z,17.54
2018-07-19T02:19:02.390Z,17.57
2018-07-19T02:21:30.969Z,17.60
2018-07-19T02:23:59.561Z,17.45
2018-07-19T02:26:28.444Z,17.53
2018-07-19T02:28:56.943Z,17.62
2018-07-19T02:31:25.813Z,17.45
2018-07-19T02:33:55.309Z,17.42
2018-07-19T02:36:24.226Z,17.30
2018-07-19T02:38:53.324Z,17.19
2018-07-19T02:41:22.058Z,17.13
2018-07-19T02:43:51.379Z,17.00
2018-07-19T02:46:20.192Z,16.92
2018-07-19T02:48:49.131Z,16.87
2018-07-19T02:51:17.754Z,17.08
2018-07-19T02:53:46.306Z,17.04
2018-07-19T02:56:15.738Z,17.20
2018-07-19T02:58:44.282Z,17.22
2018-07-19T03:01:13.051Z,17.38
2018-07-19T03:03:41.586Z,17.40
2018-07-19T03:06:10.295Z,17.29
2018-07-19T03:08:39.253Z,17.39
2018-07-19T03:11:07.946Z,17.34
2018-07-19T03:13:36.578Z,17.25
2018-07-19T03:16:05.222Z,17.20
2018-07-19T03:18:33.770Z,17.24
2018-07-19T03:21:02.801Z,17.26
2018-07-19T03:23:31.559Z,17.31
2018-07-19T03:26:00.165Z,17.36
2018-07-19T03:28:30.147Z,17.29
2018-07-19T03:30:58.824Z,17.31
2018-07-19T03:33:27.630Z,17.30
2018-07-19T03:35:56.555Z,17.43
2018-07-19T03:38:25.973Z,17.42
2018-07-19T03:40:54.595Z,17.35
2018-07-19T03:43:24.030Z,17.36
2018-07-19T03:45:53.577Z,17.34
2018-07-19T03:48:22.134Z,17.42
2018-07-19T03:50:50.746Z,17.40
2018-07-19T03:53:19.946Z,17.52
2018-07-19T03:55:48.575Z,17.51
2018-07-19T03:58:17.334Z,17.54
2018-07-19T04:00:46.014Z,17.66
2018-07-19T04:03:14.541Z,17.79
2018-07-19T04:05:43.136Z,17.77
2018-07-19T04:08:11.690Z,17.81
2018-07-19T04:10:40.352Z,17.87
2018-07-19T04:13:09.197Z,17.89
2018-07-19T04:15:37.758Z,17.94
2018-07-19T04:18:06.389Z,18.12
2018-07-19T04:20:35.371Z,18.15
2018-07-19T04:23:04.843Z,18.24
2018-07-19T04:25:33.419Z,18.25
2018-07-19T04:28:02.115Z,18.40
2018-07-19T04:30:30.642Z,18.49
2018-07-19T04:32:59.242Z,18.49
2018-07-19T04:35:27.846Z,18.53
2018-07-19T04:37:56.409Z,18.55
2018-07-19T04:40:25.520Z,18.70
2018-07-19T04:42:54.270Z,18.74
2018-07-19T04:45:22.817Z,18.81
2018-07-19T04:47:51.402Z,18.86
2018-07-19T04:50:20.051Z,18.96
2018-07-19T04:52:49.063Z,19.00
2018-07-19T04:55:17.618Z,19.06
2018-07-19T04:57:46.728Z,19.18
2018-07-19T05:00:17.230Z,19.29
2018-07-19T05:02:45.778Z,19.37
2018-07-19T05:05:14.355Z,19.43
2018-07-19T05:07:42.999Z,19.53
2018-07-19T05:10:12.370Z,19.68
2018-07-19T05:12:41.185Z,19.76
2018-07-19T05:15:09.826Z,19.81
2018-07-19T05:17:38.555Z,19.91
2018-07-19T05:20:07.235Z,19.95
2018-07-19T05:22:36.090Z,20.04
2018-07-19T05:25:04.714Z,20.07
2018-07-19T05:27:33.275Z,20.24
2018-07-19T05:30:01.794Z,20.36
2018-07-19T05:32:30.360Z,20.35
2018-07-19T05:34:58.886Z,20.58
2018-07-19T05:37:27.450Z,20.49
2018-07-19T05:40:01.918Z,20.58
2018-07-19T05:42:30.549Z,20.60
2018-07-19T05:44:59.065Z,20.67
2018-07-19T05:47:27.665Z,20.68
2018-07-19T05:49:56.184Z,20.62
2018-07-19T05:52:25.977Z,20.65
2018-07-19T05:54:54.481Z,20.65
2018-07-19T05:57:23.183Z,20.45
2018-07-19T05:59:51.751Z,20.56
2018-07-19T06:02:20.300Z,20.80
2018-07-19T06:04:48.798Z,20.99
2018-07-19T06:07:20.935Z,21.09
2018-07-19T06:09:49.529Z,21.21
2018-07-19T06:12:18.063Z,21.30
2018-07-19T06:14:46.646Z,21.47
2018-07-19T06:17:15.510Z,21.38
2018-07-19T06:19:44.754Z,21.58
2018-07-19T06:22:13.322Z,21.59
2018-07-19T06:24:42.010Z,21.67
2018-07-19T06:27:10.545Z,21.60
2018-07-19T06:29:39.077Z,21.62
2018-07-19T06:32:07.638Z,21.52
2018-07-19T06:34:37.851Z,21.54
2018-07-19T06:37:07.167Z,21.74
2018-07-19T06:39:35.728Z,21.92
2018-07-19T06:42:04.374Z,22.18
2018-07-19T06:44:32.935Z,22.30
2018-07-19T06:47:05.362Z,22.42
2018-07-19T06:49:34.135Z,22.48
2018-07-19T06:52:02.782Z,22.75
2018-07-19T06:54:31.445Z,22.92
2018-07-19T06:57:00.011Z,23.04
2018-07-19T06:59:28.711Z,23.39
2018-07-19T07:01:57.311Z,23.82
2018-07-19T07:04:25.995Z,24.01
2018-07-19T07:06:54.550Z,24.19
2018-07-19T07:09:24.030Z,24.60
2018-07-19T07:11:52.565Z,24.81
2018-07-19T07:14:21.121Z,25.22
2018-07-19T07:16:49.650Z,25.08
2018-07-19T07:19:18.179Z,25.12
2018-07-19T07:21:47.483Z,25.70
2018-07-19T07:24:16.012Z,25.74
2018-07-19T07:26:44.503Z,26.00
2018-07-19T07:29:13.014Z,25.99
2018-07-19T07:31:41.634Z,26.21
2018-07-19T07:34:17.402Z,26.58
2018-07-19T07:36:45.905Z,27.18
2018-07-19T07:39:14.550Z,27.53
2018-07-19T07:41:43.078Z,28.00
2018-07-19T07:44:11.720Z,28.10
2018-07-19T07:46:43.770Z,28.50
2018-07-19T07:49:12.291Z,28.86
2018-07-19T07:51:40.800Z,29.11
2018-07-19T07:54:09.348Z,30.06
2018-07-19T07:56:37.893Z,30.89
2018-07-19T07:59:06.454Z,31.80
2018-07-19T08:01:34.992Z,33.44
2018-07-19T08:04:03.561Z,35.48
2018-07-19T08:06:32.147Z,36.92
2018-07-19T08:09:04.323Z,37.79
2018-07-19T08:11:32.813Z,37.53
2018-07-19T08:14:01.384Z,39.16
2018-07-19T08:16:29.902Z,39.67
2018-07-19T08:18:58.421Z,40.39
2018-07-19T08:21:27.633Z,41.03
2018-07-19T08:23:56.165Z,40.62
2018-07-19T08:26:24.670Z,40.88
2018-07-19T08:28:53.222Z,39.90
2018-07-19T08:31:21.774Z,40.79
2018-07-19T08:33:53.531Z,41.06
2018-07-19T08:36:22.047Z,41.36
2018-07-19T08:38:50.623Z,41.10
2018-07-19T08:41:19.158Z,40.82
2018-07-19T08:43:47.710Z,41.97
2018-07-19T08:46:16.605Z,41.63
2018-07-19T08:48:45.158Z,42.29
2018-07-19T08:51:13.705Z,41.98
2018-07-19T08:53:42.906Z,40.73
2018-07-19T08:56:12.162Z,41.02
2018-07-19T08:58:40.973Z,40.71
2018-07-19T09:01:09.521Z,40.14
2018-07-19T09:03:38.044Z,40.28
2018-07-19T09:06:06.978Z,39.86
2018-07-19T09:08:35.535Z,40.93
2018-07-19T09:11:04.097Z,40.01
2018-07-19T09:13:32.586Z,39.99
2018-07-19T09:16:01.118Z,40.09
2018-07-19T09:18:33.311Z,41.22
2018-07-19T09:21:02.546Z,40.49
2018-07-19T09:23:31.066Z,40.20
2018-07-19T09:25:59.651Z,40.28
2018-07-19T09:28:28.204Z,40.00
2018-07-19T09:30:56.794Z,39.97
2018-07-19T09:33:26.906Z,39.60
2018-07-19T09:35:55.462Z,38.63
2018-07-19T09:39:48.483Z,39.42
2018-07-19T09:42:17.698Z,40.61
2018-07-19T09:44:46.223Z,41.22
2018-07-19T09:47:14.766Z,42.95
2018-07-19T09:49:43.549Z,41.51
2018-07-19T09:52:12.055Z,39.59
2018-07-19T09:54:55.731Z,38.50
2018-07-19T09:57:24.269Z,39.51
2018-07-19T09:59:55.557Z,40.04
2018-07-19T10:02:24.656Z,41.13
2018-07-19T10:04:53.182Z,41.61
2018-07-19T10:07:22.023Z,40.15
2018-07-19T10:09:50.679Z,40.27
2018-07-19T10:12:19.409Z,41.29
2018-07-19T10:14:48.394Z,42.28
2018-07-19T10:17:16.987Z,42.05
2018-07-19T10:19:46.077Z,42.11
2018-07-19T10:22:14.678Z,42.84
2018-07-19T10:24:43.242Z,41.38
2018-07-19T10:27:11.805Z,40.37
2018-07-19T10:29:40.442Z,38.16
2018-07-19T10:32:09.023Z,38.11
2018-07-19T10:34:37.546Z,37.34
2018-07-19T10:37:06.101Z,37.00
2018-07-19T10:39:34.674Z,36.06
2018-07-19T10:42:03.260Z,36.62
2018-07-19T10:44:34.146Z,36.91
2018-07-19T10:47:02.682Z,37.01
2018-07-19T10:49:31.197Z,35.94
2018-07-19T10:51:59.729Z,36.26
2018-07-19T10:54:28.262Z,36.38
2018-07-19T10:56:57.086Z,35.52
2018-07-19T10:59:25.654Z,36.12
2018-07-19T11:01:54.178Z,36.29
2018-07-19T11:04:22.724Z,36.44
2018-07-19T11:06:51.229Z,37.41
2018-07-19T11:09:20.580Z,37.51
2018-07-19T11:11:49.234Z,38.09
2018-07-19T11:14:17.773Z,37.94
2018-07-19T11:16:46.310Z,38.49
2018-07-19T11:19:14.798Z,39.84
2018-07-19T11:21:44.010Z,41.57
2018-07-19T11:24:13.525Z,41.57
2018-07-19T11:26:42.053Z,41.25
2018-07-19T11:29:10.593Z,39.87
2018-07-19T11:31:40.411Z,38.78
2018-07-19T11:34:08.907Z,38.25
2018-07-19T11:36:37.422Z,38.68
2018-07-19T11:39:07.966Z,38.84
2018-07-19T11:41:36.532Z,37.99
2018-07-19T11:44:06.138Z,37.70
2018-07-19T11:46:34.688Z,36.68
2018-07-19T11:49:03.217Z,36.34
2018-07-19T11:51:31.814Z,36.69
2018-07-19T11:54:00.289Z,36.87
2018-07-19T11:56:29.187Z,35.69
2018-07-19T11:58:57.663Z,35.74
2018-07-19T12:01:26.214Z,36.35
2018-07-19T12:03:54.705Z,36.63
2018-07-19T12:06:23.276Z,37.50
2018-07-19T12:08:52.436Z,37.29
2018-07-19T12:11:21.002Z,36.78
2018-07-19T12:13:50.281Z,36.94
2018-07-19T12:16:18.867Z,37.37
2018-07-19T12:18:47.393Z,37.56
2018-07-19T12:21:15.874Z,37.96
2018-07-19T12:23:45.515Z,38.75
2018-07-19T12:26:14.001Z,39.97
2018-07-19T12:30:07.198Z,40.17
2018-07-19T12:32:35.800Z,38.05
2018-07-19T12:35:04.342Z,37.00
2018-07-19T12:37:33.245Z,36.47
2018-07-19T12:40:01.785Z,36.09
2018-07-19T12:42:30.346Z,36.97
2018-07-19T12:44:58.925Z,38.27
2018-07-19T12:47:27.522Z,38.25
2018-07-19T12:49:56.069Z,37.20
2018-07-19T12:52:24.687Z,37.01
2018-07-19T12:54:53.681Z,37.20
2018-07-19T12:57:22.196Z,35.85
2018-07-19T12:59:55.492Z,36.50
2018-07-19T13:02:24.037Z,36.88
2018-07-19T13:04:52.573Z,35.83
2018-07-19T13:07:21.097Z,36.42
2018-07-19T13:09:49.669Z,36.30
2018-07-19T13:12:18.226Z,35.44
2018-07-19T13:14:47.550Z,35.14
2018-07-19T13:17:16.085Z,36.32
2018-07-19T13:19:44.674Z,36.24
2018-07-19T13:22:13.271Z,36.23
2018-07-19T13:24:41.746Z,36.31
2018-07-19T13:27:10.262Z,37.01
2018-07-19T13:29:38.817Z,36.97
2018-07-19T13:32:07.329Z,36.47
2018-07-19T13:34:38.854Z,36.57
2018-07-19T13:37:07.329Z,36.71
2018-07-19T13:39:35.919Z,36.36
2018-07-19T13:42:04.484Z,36.78
2018-07-19T13:44:33.042Z,35.66
2018-07-19T13:47:01.530Z,35.82
2018-07-19T13:49:30.066Z,36.13
2018-07-19T13:51:58.626Z,36.75
2018-07-19T13:54:41.199Z,36.38
2018-07-19T13:57:09.674Z,36.06
2018-07-19T13:59:38.178Z,36.42
2018-07-19T14:02:06.743Z,37.18
2018-07-19T14:04:35.286Z,37.51
2018-07-19T14:07:03.814Z,36.39
2018-07-19T14:09:32.325Z,37.19
2018-07-19T14:12:00.854Z,38.24
2018-07-19T14:14:29.361Z,37.64
2018-07-19T14:16:57.854Z,37.34
2018-07-19T14:19:26.374Z,37.57
2018-07-19T14:21:54.981Z,37.87
2018-07-19T14:24:23.467Z,38.12
2018-07-19T14:26:51.966Z,37.55
2018-07-19T14:29:20.682Z,36.58
2018-07-19T14:31:49.162Z,35.81
2018-07-19T14:34:17.680Z,36.11
2018-07-19T14:36:46.162Z,35.49
2018-07-19T14:39:15.443Z,35.45
2018-07-19T14:41:43.942Z,35.73
2018-07-19T14:44:12.866Z,36.57
2018-07-19T14:46:42.097Z,37.22
2018-07-19T14:49:10.557Z,36.83
2018-07-19T14:51:39.074Z,37.40
2018-07-19T14:54:07.550Z,38.26
2018-07-19T14:56:36.096Z,38.01
2018-07-19T14:59:04.581Z,38.73
2018-07-19T15:01:33.157Z,38.52
2018-07-19T15:04:01.695Z,38.46
2018-07-19T15:06:30.888Z,37.90
2018-07-19T15:08:59.354Z,38.29
2018-07-19T15:11:27.905Z,37.84
2018-07-19T15:13:56.846Z,37.41
2018-07-19T15:16:25.349Z,37.25
2018-07-19T15:18:53.841Z,36.62
2018-07-19T15:21:22.390Z,36.48
2018-07-19T15:23:50.858Z,36.28
2018-07-19T15:26:19.360Z,36.79
2018-07-19T15:28:47.814Z,36.20
2018-07-19T15:31:16.344Z,36.40
2018-07-19T15:33:44.818Z,36.33
2018-07-19T15:36:13.334Z,36.99
2018-07-19T15:38:41.831Z,37.01
2018-07-19T15:41:10.345Z,36.64
2018-07-19T15:43:38.822Z,36.17
2018-07-19T15:46:14.851Z,36.12
2018-07-19T15:48:43.309Z,36.09
2018-07-19T15:51:11.806Z,36.11
2018-07-19T15:53:40.269Z,36.20
2018-07-19T15:56:08.775Z,36.21
2018-07-19T15:58:37.883Z,36.02
2018-07-19T16:01:06.417Z,36.27
2018-07-19T16:03:34.907Z,35.62
2018-07-19T16:06:03.394Z,35.75
2018-07-19T16:08:31.894Z,35.67
2018-07-19T16:11:00.366Z,35.87
2018-07-19T16:13:28.853Z,35.77
2018-07-19T16:15:57.333Z,36.50
2018-07-19T16:18:25.834Z,36.19
2018-07-19T16:20:54.315Z,36.33
2018-07-19T16:23:22.817Z,35.87
2018-07-19T16:25:51.423Z,36.26
2018-07-19T16:28:19.892Z,36.12
2018-07-19T16:30:48.373Z,35.36
2018-07-19T16:33:16.971Z,35.53
2018-07-19T16:35:49.182Z,35.50
2018-07-19T16:38:17.652Z,35.47
2018-07-19T16:40:46.662Z,35.28
2018-07-19T16:43:15.178Z,34.97
2018-07-19T16:45:43.660Z,34.45
2018-07-19T16:48:13.583Z,34.25
2018-07-19T16:50:42.059Z,33.99
2018-07-19T16:53:10.567Z,33.97
2018-07-19T16:55:39.059Z,33.36
2018-07-19T16:58:07.578Z,33.25
2018-07-19T17:00:36.046Z,33.19
2018-07-19T17:03:04.558Z,33.37
2018-07-19T17:05:33.031Z,33.60
2018-07-19T17:08:01.546Z,33.96
2018-07-19T17:10:30.112Z,34.58
2018-07-19T17:12:59.454Z,34.73
2018-07-19T17:15:27.919Z,34.38
2018-07-19T17:17:56.430Z,34.54
2018-07-19T17:20:24.918Z,34.16
2018-07-19T17:22:53.426Z,34.38
2018-07-19T17:25:22.837Z,34.47
2018-07-19T17:27:51.342Z,34.08
2018-07-19T17:30:19.819Z,33.86
2018-07-19T17:32:48.334Z,32.99
2018-07-19T17:35:16.806Z,32.68
2018-07-19T17:37:46.005Z,32.27
2018-07-19T17:40:14.474Z,32.10
2018-07-19T17:42:43.085Z,31.73
2018-07-19T17:45:11.591Z,31.54
2018-07-19T17:47:40.085Z,31.28
2018-07-19T17:50:09.082Z,30.81
2018-07-19T17:52:37.565Z,30.55
2018-07-19T17:55:06.026Z,30.45
2018-07-19T17:57:34.557Z,30.26
2018-07-19T18:00:03.102Z,30.28
2018-07-19T18:02:31.585Z,29.97
2018-07-19T18:05:00.082Z,29.76
2018-07-19T18:07:28.550Z,29.73
2018-07-19T18:09:57.085Z,29.67
2018-07-19T18:12:25.541Z,29.55
2018-07-19T18:14:54.070Z,29.37
2018-07-19T18:17:22.558Z,29.33
2018-07-19T18:19:51.982Z,29.04
2018-07-19T18:22:20.671Z,28.86
2018-07-19T18:24:49.174Z,28.93
2018-07-19T18:27:17.654Z,28.70
2018-07-19T18:29:46.163Z,28.62
2018-07-19T18:32:14.662Z,28.48
2018-07-19T18:34:43.162Z,28.47
2018-07-19T18:37:11.646Z,28.41
2018-07-19T18:39:40.197Z,28.27
2018-07-19T18:42:21.054Z,28.08
2018-07-19T18:44:49.624Z,27.95
2018-07-19T18:47:18.109Z,27.88
2018-07-19T18:49:46.622Z,27.58
2018-07-19T18:52:15.105Z,27.44
2018-07-19T18:54:45.538Z,27.32
2018-07-19T18:57:14.034Z,27.17
2018-07-19T18:59:42.535Z,27.00
2018-07-19T19:02:11.330Z,26.86
2018-07-19T19:04:39.843Z,26.76
2018-07-19T19:07:08.397Z,26.71
2018-07-19T19:09:40.409Z,26.57
2018-07-19T19:12:08.922Z,26.53
2018-07-19T19:14:37.410Z,26.31
2018-07-19T19:17:06.130Z,26.18
2018-07-19T19:19:34.622Z,26.07
2018-07-19T19:22:06.850Z,25.94
2018-07-19T19:24:35.359Z,25.78
2018-07-19T19:27:03.831Z,25.60
2018-07-19T19:29:32.334Z,25.50
2018-07-19T19:32:00.833Z,25.37
2018-07-19T19:34:34.755Z,25.26
2018-07-19T19:37:03.252Z,25.05
2018-07-19T19:39:31.753Z,24.91
2018-07-19T19:42:00.242Z,24.86
2018-07-19T19:44:28.744Z,24.78
2018-07-19T19:46:57.218Z,24.66
2018-07-19T19:49:25.717Z,24.47
2018-07-19T19:51:54.198Z,24.24
2018-07-19T19:54:22.749Z,24.17
2018-07-19T19:56:54.623Z,24.08
2018-07-19T19:59:23.175Z,24.00
2018-07-19T20:01:51.710Z,23.95
2018-07-19T20:04:20.234Z,23.91
2018-07-19T20:06:48.705Z,23.87
2018-07-19T20:09:17.239Z,23.86
2018-07-19T20:11:45.715Z,23.81
2018-07-19T20:14:14.226Z,23.70
2018-07-19T20:16:42.694Z,23.67
2018-07-19T20:19:16.614Z,23.62
2018-07-19T20:21:45.105Z,23.51
2018-07-19T20:24:13.643Z,23.49
2018-07-19T20:26:42.163Z,23.46
2018-07-19T20:29:11.336Z,23.36
2018-07-19T20:31:41.756Z,23.26
2018-07-19T20:34:10.286Z,23.20
2018-07-19T20:36:38.843Z,23.00
2018-07-19T20:39:07.885Z,22.73
2018-07-19T20:41:36.604Z,22.49
2018-07-19T20:44:05.177Z,22.29
2018-07-19T20:46:33.742Z,22.24
2018-07-19T20:49:02.517Z,22.22
2018-07-19T20:51:34.925Z,22.28
2018-07-19T20:54:03.438Z,22.16
2018-07-19T20:56:31.985Z,22.16
2018-07-19T20:59:00.453Z,21.96
2018-07-19T21:01:29.185Z,21.75
2018-07-19T21:03:57.681Z,21.60
2018-07-19T21:06:26.186Z,21.61
2018-07-19T21:08:54.686Z,21.53
2018-07-19T21:11:23.237Z,21.59
2018-07-19T21:13:51.751Z,21.69
2018-07-19T21:16:20.265Z,21.83
2018-07-19T21:18:48.761Z,21.69
2018-07-19T21:21:17.261Z,21.41
2018-07-19T21:23:47.294Z,21.30
2018-07-19T21:26:15.893Z,21.36
2018-07-19T21:28:44.345Z,21.37
2018-07-19T21:31:12.887Z,21.45
2018-07-19T21:33:41.382Z,21.50
2018-07-19T21:36:09.914Z,21.43
2018-07-19T21:38:38.469Z,21.52
2018-07-19T21:41:07.029Z,21.45
2018-07-19T21:43:35.538Z,21.39
2018-07-19T21:46:04.163Z,21.28
2018-07-19T21:48:32.657Z,21.19
2018-07-19T21:51:01.250Z,21.24
2018-07-19T21:53:41.942Z,21.15
2018-07-19T21:56:10.535Z,21.12
2018-07-19T21:58:39.026Z,21.08
2018-07-19T22:01:10.329Z,21.02
2018-07-19T22:03:39.234Z,21.04
2018-07-19T22:06:08.231Z,21.01
2018-07-19T22:08:36.744Z,21.12
2018-07-19T22:11:05.334Z,21.01
2018-07-19T22:13:33.833Z,21.03
2018-07-19T22:16:02.379Z,20.95
2018-07-19T22:18:30.929Z,20.91
2018-07-19T22:20:59.907Z,20.74
2018-07-19T22:23:28.459Z,20.70
2018-07-19T22:25:58.570Z,20.62
2018-07-19T22:28:27.017Z,20.56
2018-07-19T22:30:55.630Z,20.44
2018-07-19T22:33:24.186Z,20.39
2018-07-19T22:35:52.782Z,20.36
2018-07-19T22:38:33.562Z,20.29
2018-07-19T22:41:02.065Z,20.23
2018-07-19T22:43:30.578Z,20.21
2018-07-19T22:45:59.145Z,20.17
2018-07-19T22:48:27.906Z,20.17
2018-07-19T22:50:56.462Z,20.13
2018-07-19T22:53:25.006Z,20.08
2018-07-19T22:55:53.834Z,20.08
2018-07-19T22:58:22.418Z,20.07
2018-07-19T23:00:54.641Z,19.99
2018-07-19T23:03:23.474Z,20.02
2018-07-19T23:05:52.004Z,19.93
2018-07-19T23:08:20.566Z,19.99
2018-07-19T23:10:49.134Z,19.86
2018-07-19T23:13:23.413Z,19.75
2018-07-19T23:15:51.979Z,19.72
2018-07-19T23:18:20.870Z,19.72
2018-07-19T23:20:49.499Z,19.77
2018-07-19T23:23:18.037Z,19.78
2018-07-19T23:25:46.582Z,19.67
2018-07-19T23:28:15.225Z,19.60
2018-07-19T23:30:43.805Z,19.24
2018-07-19T23:33:12.478Z,19.26
2018-07-19T23:35:45.874Z,19.27
2018-07-19T23:38:18.441Z,19.34
2018-07-19T23:40:49.166Z,19.29
2018-07-19T23:43:23.723Z,19.23
2018-07-19T23:45:57.755Z,19.16
2018-07-19T23:48:26.414Z,18.97
2018-07-19T23:50:55.015Z,18.99
2018-07-19T23:53:23.589Z,19.00
2018-07-19T23:55:52.526Z,19.00
2018-07-19T23:58:21.159Z,18.85
